createdAt,value
2018-11-07T00:01:05.258Z,7.50
2018-11-07T00:06:00.774Z,7.54
2018-11-07T00:10:57.138Z,7.48
2018-11-07T00:15:52.618Z,7.34
2018-11-07T00:20:58.213Z,7.29
2018-11-07T00:25:53.877Z,7.35
2018-11-07T00:30:56.068Z,7.32
2018-11-07T00:41:34.459Z,7.31
2018-11-07T00:46:32.951Z,7.04
2018-11-07T00:51:29.457Z,7.00
2018-11-07T00:56:27.139Z,6.99
2018-11-07T01:01:23.169Z,6.84
2018-11-07T01:06:18.821Z,6.60
2018-11-07T01:11:14.207Z,6.64
2018-11-07T01:16:10.526Z,6.81
2018-11-07T01:21:06.830Z,6.91
2018-11-07T01:26:02.054Z,6.73
2018-11-07T01:30:57.468Z,6.69
2018-11-07T01:35:52.841Z,6.66
2018-11-07T01:40:48.412Z,6.52
2018-11-07T01:45:43.962Z,6.56
2018-11-07T01:50:39.282Z,6.66
2018-11-07T01:55:34.714Z,6.73
2018-11-07T02:00:30.200Z,6.68
2018-11-07T02:05:25.645Z,6.39
2018-11-07T02:10:21.122Z,6.35
2018-11-07T02:15:19.509Z,6.50
2018-11-07T02:20:15.007Z,6.50
2018-11-07T02:25:10.515Z,6.35
2018-11-07T02:30:08.236Z,6.36
2018-11-07T02:35:03.501Z,6.24
2018-11-07T02:39:59.373Z,5.90
2018-11-07T02:44:54.763Z,6.12
2018-11-07T02:49:50.039Z,5.99
2018-11-07T02:54:45.333Z,6.30
2018-11-07T02:59:43.851Z,6.42
2018-11-07T03:04:39.065Z,6.58
2018-11-07T03:09:34.415Z,6.52
2018-11-07T03:14:29.764Z,6.56
2018-11-07T03:19:25.040Z,6.51
2018-11-07T03:24:20.222Z,6.68
2018-11-07T03:29:15.581Z,6.75
2018-11-07T03:34:10.894Z,6.83
2018-11-07T03:39:09.507Z,6.94
2018-11-07T03:44:05.912Z,7.04
2018-11-07T03:49:01.167Z,6.89
2018-11-07T03:53:56.504Z,6.89
2018-11-07T03:58:58.389Z,6.96
2018-11-07T04:03:53.692Z,7.08
2018-11-07T04:08:49.043Z,7.26
2018-11-07T04:13:44.471Z,7.27
2018-11-07T04:18:40.026Z,7.31
2018-11-07T04:23:35.301Z,7.30
2018-11-07T04:28:31.383Z,7.22
2018-11-07T04:33:27.904Z,7.14
2018-11-07T04:38:23.475Z,7.01
2018-11-07T04:43:18.600Z,7.03
2018-11-07T04:48:14.293Z,7.07
2018-11-07T04:53:09.675Z,7.14
2018-11-07T04:58:06.140Z,7.18
2018-11-07T05:03:01.395Z,7.08
2018-11-07T05:07:57.296Z,7.09
2018-11-07T05:12:52.712Z,7.12
2018-11-07T05:17:47.941Z,7.20
2018-11-07T05:22:43.069Z,7.10
2018-11-07T05:27:38.378Z,7.14
2018-11-07T05:32:33.979Z,7.26
2018-11-07T05:37:29.566Z,7.26
2018-11-07T05:42:24.962Z,7.26
2018-11-07T05:47:20.309Z,7.29
2018-11-07T05:52:15.801Z,7.28
2018-11-07T05:57:11.393Z,7.29
2018-11-07T06:02:06.856Z,7.31
2018-11-07T06:07:02.977Z,7.33
2018-11-07T06:11:58.494Z,7.39
2018-11-07T06:16:53.828Z,7.28
2018-11-07T06:21:49.288Z,7.28
2018-11-07T06:26:48.042Z,7.26
2018-11-07T06:31:44.117Z,7.35
2018-11-07T06:36:39.824Z,7.28
2018-11-07T06:41:34.932Z,7.27
2018-11-07T06:46:30.235Z,7.32
2018-11-07T06:51:25.627Z,7.40
2018-11-07T06:56:20.857Z,7.43
2018-11-07T07:01:16.097Z,7.49
2018-11-07T07:06:11.303Z,7.56
2018-11-07T07:11:06.703Z,7.53
2018-11-07T07:16:01.943Z,7.52
2018-11-07T07:20:57.262Z,7.50
2018-11-07T07:25:52.460Z,7.43
2018-11-07T07:30:47.497Z,7.51
2018-11-07T07:35:43.476Z,7.59
2018-11-07T07:40:38.980Z,7.82
2018-11-07T07:45:34.131Z,7.79
2018-11-07T07:50:30.688Z,7.78
2018-11-07T07:55:26.230Z,7.90
2018-11-07T08:00:22.112Z,8.00
2018-11-07T08:05:17.695Z,7.82
2018-11-07T08:10:15.529Z,7.82
2018-11-07T08:15:11.754Z,7.97
2018-11-07T08:20:09.066Z,8.07
2018-11-07T08:25:04.523Z,8.07
2018-11-07T08:29:59.891Z,8.40
2018-11-07T08:34:55.348Z,8.55
2018-11-07T08:39:50.553Z,8.52
2018-11-07T08:44:45.900Z,8.60
2018-11-07T08:49:41.679Z,8.83
2018-11-07T08:54:37.031Z,8.76
2018-11-07T08:59:32.486Z,8.91
2018-11-07T09:04:28.000Z,9.13
2018-11-07T09:09:27.031Z,9.21
2018-11-07T09:14:23.985Z,9.14
2018-11-07T09:19:22.870Z,9.17
2018-11-07T09:24:18.389Z,9.45
2018-11-07T09:29:13.560Z,9.32
2018-11-07T09:34:09.360Z,9.73
2018-11-07T09:39:13.440Z,9.97
2018-11-07T09:44:54.357Z,9.95
2018-11-07T09:49:50.286Z,9.90
2018-11-07T09:54:45.346Z,10.13
2018-11-07T09:59:40.661Z,10.07
2018-11-07T10:04:35.801Z,10.13
2018-11-07T10:09:31.215Z,10.14
2018-11-07T10:14:27.225Z,10.25
2018-11-07T10:19:23.474Z,10.28
2018-11-07T10:24:18.832Z,10.41
2018-11-07T10:29:14.194Z,10.53
2018-11-07T10:34:10.522Z,10.63
2018-11-07T10:39:08.559Z,10.75
2018-11-07T10:44:03.704Z,10.78
2018-11-07T10:48:59.020Z,10.81
2018-11-07T10:53:54.230Z,10.79
2018-11-07T10:58:49.290Z,10.83
2018-11-07T11:03:44.630Z,10.88
2018-11-07T11:08:39.809Z,10.88
2018-11-07T11:13:37.106Z,10.99
2018-11-07T11:18:33.274Z,10.93
2018-11-07T11:23:28.865Z,10.99
2018-11-07T11:28:24.563Z,11.17
2018-11-07T11:33:19.921Z,11.24
2018-11-07T11:38:15.993Z,11.19
2018-11-07T11:43:11.454Z,11.27
2018-11-07T11:48:06.992Z,11.50
2018-11-07T11:53:02.136Z,11.53
2018-11-07T11:57:57.323Z,11.84
2018-11-07T12:02:52.463Z,11.92
2018-11-07T12:07:47.624Z,12.09
2018-11-07T12:12:44.248Z,12.03
2018-11-07T12:17:39.418Z,12.05
2018-11-07T12:22:34.604Z,12.14
2018-11-07T12:27:29.780Z,12.18
2018-11-07T12:32:24.859Z,12.25
2018-11-07T12:37:19.924Z,12.25
2018-11-07T12:42:15.112Z,12.26
2018-11-07T12:47:10.217Z,12.28
2018-11-07T12:52:05.704Z,12.31
2018-11-07T12:57:01.132Z,12.22
2018-11-07T13:01:57.603Z,12.16
2018-11-07T13:06:53.106Z,12.08
2018-11-07T13:11:48.313Z,12.22
2018-11-07T13:16:43.775Z,12.16
2018-11-07T13:21:38.899Z,12.23
2018-11-07T13:26:34.191Z,12.30
2018-11-07T13:31:30.170Z,12.39
2018-11-07T13:36:25.588Z,12.32
2018-11-07T13:41:20.729Z,12.18
2018-11-07T13:46:16.645Z,12.21
2018-11-07T13:51:11.733Z,12.40
2018-11-07T13:56:07.208Z,12.43
2018-11-07T14:01:02.580Z,12.49
2018-11-07T14:05:57.933Z,12.51
2018-11-07T14:10:56.617Z,12.61
2018-11-07T14:15:55.143Z,12.57
2018-11-07T14:20:50.606Z,12.58
2018-11-07T14:25:45.950Z,12.56
2018-11-07T14:30:41.831Z,12.56
2018-11-07T14:35:37.431Z,12.56
2018-11-07T14:40:33.407Z,12.62
2018-11-07T14:45:31.050Z,12.48
2018-11-07T14:50:26.766Z,12.22
2018-11-07T14:55:22.292Z,11.97
2018-11-07T15:00:18.541Z,11.78
2018-11-07T15:05:14.843Z,11.60
2018-11-07T15:10:11.594Z,11.45
2018-11-07T15:15:09.113Z,11.35
2018-11-07T15:20:04.425Z,11.24
2018-11-07T15:25:00.098Z,11.08
2018-11-07T15:29:55.453Z,10.96
2018-11-07T15:34:52.475Z,10.79
2018-11-07T15:39:47.972Z,10.68
2018-11-07T15:44:44.926Z,10.62
2018-11-07T15:49:47.266Z,10.51
2018-11-07T15:54:43.466Z,10.44
2018-11-07T15:59:38.985Z,10.41
2018-11-07T16:04:34.454Z,10.39
2018-11-07T16:09:29.825Z,10.36
2018-11-07T16:14:24.941Z,10.35
2018-11-07T16:19:20.197Z,10.21
2018-11-07T16:24:15.354Z,10.09
2018-11-07T16:29:15.439Z,10.07
2018-11-07T16:34:10.870Z,10.01
2018-11-07T16:39:11.654Z,10.02
2018-11-07T16:50:02.100Z,10.13
2018-11-07T16:54:57.544Z,10.16
2018-11-07T16:59:53.159Z,10.20
2018-11-07T17:04:48.884Z,10.32
2018-11-07T17:09:44.174Z,10.27
2018-11-07T17:14:39.516Z,10.18
2018-11-07T17:19:34.815Z,10.16
2018-11-07T17:24:30.603Z,10.08
2018-11-07T17:29:26.013Z,10.01
2018-11-07T17:34:21.347Z,9.89
2018-11-07T17:39:16.926Z,9.84
2018-11-07T17:44:12.899Z,9.81
2018-11-07T17:49:08.755Z,9.78
2018-11-07T17:54:05.401Z,9.67
2018-11-07T17:59:00.971Z,9.59
2018-11-07T18:04:04.323Z,9.58
2018-11-07T18:09:00.045Z,9.43
2018-11-07T18:13:55.357Z,9.48
2018-11-07T18:18:51.040Z,9.38
2018-11-07T18:23:46.407Z,9.33
2018-11-07T18:28:42.414Z,9.30
2018-11-07T18:33:37.875Z,9.37
2018-11-07T18:38:33.269Z,9.43
2018-11-07T18:43:29.688Z,9.42
2018-11-07T18:48:25.048Z,9.49
2018-11-07T18:53:21.902Z,9.45
2018-11-07T18:58:17.672Z,9.37
2018-11-07T19:03:14.217Z,9.37
2018-11-07T19:08:12.233Z,9.38
2018-11-07T19:13:07.740Z,9.35
2018-11-07T19:18:03.074Z,9.25
2018-11-07T19:22:58.283Z,9.32
2018-11-07T19:27:53.536Z,9.33
2018-11-07T19:32:49.528Z,9.38
2018-11-07T19:37:45.364Z,9.39
2018-11-07T19:42:41.045Z,9.42
2018-11-07T19:47:36.966Z,9.47
2018-11-07T19:52:33.191Z,9.51
2018-11-07T19:57:28.583Z,9.52
2018-11-07T20:02:24.816Z,9.51
2018-11-07T20:07:20.960Z,9.34
2018-11-07T20:12:16.853Z,9.37
2018-11-07T20:17:14.691Z,9.29
2018-11-07T20:22:11.476Z,9.43
2018-11-07T20:27:07.259Z,9.48
2018-11-07T20:32:02.880Z,9.53
2018-11-07T20:36:58.486Z,9.36
2018-11-07T20:41:53.794Z,9.35
2018-11-07T20:46:49.223Z,9.36
2018-11-07T20:51:44.497Z,9.31
2018-11-07T20:56:56.032Z,9.25
2018-11-07T21:01:53.461Z,9.30
2018-11-07T21:07:04.008Z,9.25
2018-11-07T21:12:00.746Z,9.24
2018-11-07T21:16:58.511Z,9.21
2018-11-07T21:27:02.517Z,9.26
2018-11-07T21:32:14.718Z,9.30
2018-11-07T21:43:03.107Z,9.31
2018-11-07T21:47:58.786Z,9.24
2018-11-07T21:52:53.955Z,9.25
2018-11-07T21:57:49.544Z,9.22
2018-11-07T22:02:46.692Z,9.22
2018-11-07T22:07:41.859Z,9.26
2018-11-07T22:12:57.773Z,9.26
2018-11-07T22:17:53.881Z,9.26
2018-11-07T22:22:48.859Z,9.32
2018-11-07T22:27:43.847Z,9.27
2018-11-07T22:32:39.513Z,9.26
2018-11-07T22:37:35.403Z,9.26
2018-11-07T22:47:57.161Z,9.15
2018-11-07T22:52:53.342Z,9.16
2018-11-07T22:57:49.976Z,9.17
2018-11-07T23:30:07.315Z,9.12
2018-11-07T23:35:09.071Z,9.17
2018-11-07T23:40:14.907Z,9.16
2018-11-07T23:52:45.816Z,9.13
